createdAt,value
2019-03-10T00:00:28.985Z,4.83
2019-03-10T00:02:57.518Z,4.90
2019-03-10T00:05:25.986Z,5.90
2019-03-10T00:07:54.640Z,5.40
2019-03-10T00:10:23.109Z,4.03
2019-03-10T00:12:51.776Z,6.93
2019-03-10T00:15:20.242Z,5.37
2019-03-10T00:17:48.700Z,4.50
2019-03-10T00:20:17.256Z,3.60
2019-03-10T00:22:45.723Z,4.47
2019-03-10T00:25:14.176Z,2.53
2019-03-10T00:27:42.645Z,2.43
2019-03-10T00:30:15.807Z,4.57
2019-03-10T00:32:44.337Z,3.53
2019-03-10T00:35:13.155Z,6.90
2019-03-10T00:37:41.869Z,4.90
2019-03-10T00:40:25.071Z,9.20
2019-03-10T00:43:18.939Z,5.87
2019-03-10T00:46:22.237Z,7.00
2019-03-10T00:49:26.937Z,4.70
2019-03-10T00:52:00.999Z,3.97
2019-03-10T00:54:29.460Z,4.47
2019-03-10T00:56:58.093Z,2.87
2019-03-10T00:59:26.555Z,3.40
2019-03-10T01:01:55.015Z,3.87
2019-03-10T01:04:23.493Z,7.17
2019-03-10T01:06:52.390Z,5.03
2019-03-10T01:09:20.938Z,2.83
2019-03-10T01:11:49.738Z,3.97
2019-03-10T01:14:18.219Z,2.83
2019-03-10T01:16:47.020Z,4.07
2019-03-10T01:19:17.416Z,3.80
2019-03-10T01:21:48.111Z,4.77
2019-03-10T01:24:16.593Z,1.67
2019-03-10T01:26:45.121Z,6.27
2019-03-10T01:29:13.672Z,4.37
2019-03-10T01:31:57.122Z,4.83
2019-03-10T01:34:48.236Z,3.20
2019-03-10T01:37:16.697Z,6.40
2019-03-10T01:39:45.172Z,3.10
2019-03-10T01:42:13.639Z,3.97
2019-03-10T01:44:42.106Z,4.10
2019-03-10T01:47:10.575Z,4.10
2019-03-10T01:49:39.056Z,6.63
2019-03-10T01:52:07.534Z,6.47
2019-03-10T01:54:36.079Z,4.50
2019-03-10T01:57:04.566Z,7.63
2019-03-10T01:59:33.037Z,4.73
2019-03-10T02:02:01.490Z,5.17
2019-03-10T02:04:29.978Z,6.70
2019-03-10T02:06:58.436Z,4.45
2019-03-10T02:09:26.910Z,4.43
2019-03-10T02:11:55.360Z,7.43
2019-03-10T02:14:23.933Z,3.80
2019-03-10T02:16:52.377Z,4.13
2019-03-10T02:19:20.848Z,3.33
2019-03-10T02:21:49.328Z,6.10
2019-03-10T02:24:23.606Z,5.60
2019-03-10T02:26:47.996Z,5.33
2019-03-10T02:29:16.456Z,6.10
2019-03-10T02:31:44.937Z,4.57
2019-03-10T02:34:13.397Z,6.90
2019-03-10T02:36:41.884Z,5.43
2019-03-10T02:39:10.510Z,4.67
2019-03-10T02:41:38.990Z,7.60
2019-03-10T02:44:07.444Z,5.73
2019-03-10T02:46:35.927Z,4.60
2019-03-10T02:49:05.025Z,7.55
2019-03-10T02:51:33.490Z,7.70
2019-03-10T02:54:01.956Z,5.47
2019-03-10T02:56:30.986Z,6.15
2019-03-10T02:59:00.033Z,8.53
2019-03-10T03:01:29.079Z,7.37
2019-03-10T03:03:58.117Z,7.50
2019-03-10T03:06:26.589Z,6.42
2019-03-10T03:08:55.051Z,7.45
2019-03-10T03:11:23.511Z,5.92
2019-03-10T03:13:52.545Z,7.85
2019-03-10T03:16:21.565Z,7.70
2019-03-10T03:18:50.625Z,8.03
2019-03-10T03:21:19.722Z,7.35
2019-03-10T03:23:48.196Z,6.55
2019-03-10T03:26:17.238Z,7.87
2019-03-10T03:28:45.721Z,10.18
2019-03-10T03:31:14.179Z,6.27
2019-03-10T03:33:43.221Z,8.28
2019-03-10T03:36:14.904Z,8.08
2019-03-10T03:38:47.038Z,5.55
2019-03-10T03:41:18.362Z,5.72
2019-03-10T03:43:47.453Z,8.28
2019-03-10T03:46:16.499Z,7.53
2019-03-10T03:48:45.540Z,7.03
2019-03-10T03:51:14.615Z,8.60
2019-03-10T03:53:43.067Z,7.57
2019-03-10T03:56:11.592Z,7.00
2019-03-10T03:58:40.065Z,10.37
2019-03-10T04:01:12.764Z,7.27
2019-03-10T04:03:41.224Z,8.67
2019-03-10T04:06:09.682Z,7.27
2019-03-10T04:08:38.161Z,8.43
2019-03-10T04:11:06.684Z,6.80
2019-03-10T04:13:35.165Z,7.70
2019-03-10T04:16:03.631Z,9.53
2019-03-10T04:18:32.751Z,6.78
2019-03-10T04:21:01.481Z,8.93
2019-03-10T04:23:30.528Z,5.92
2019-03-10T04:25:59.546Z,7.37
2019-03-10T04:28:28.025Z,5.63
2019-03-10T04:30:57.062Z,11.33
2019-03-10T04:33:26.093Z,7.45
2019-03-10T04:35:54.555Z,8.50
2019-03-10T04:38:23.667Z,8.03
2019-03-10T04:40:52.134Z,8.05
2019-03-10T04:43:21.179Z,5.12
2019-03-10T04:45:49.652Z,8.20
2019-03-10T04:48:18.123Z,5.33
2019-03-10T04:50:46.588Z,13.70
2019-03-10T04:53:15.643Z,11.90
2019-03-10T04:55:45.821Z,5.50
2019-03-10T04:58:16.451Z,10.00
2019-03-10T05:00:46.657Z,6.87
2019-03-10T05:03:15.739Z,5.20
2019-03-10T05:05:44.755Z,8.63
2019-03-10T05:08:13.805Z,5.58
2019-03-10T05:10:42.264Z,7.92
2019-03-10T05:13:11.326Z,6.08
2019-03-10T05:15:39.798Z,5.72
2019-03-10T05:18:08.286Z,9.75
2019-03-10T05:20:37.315Z,5.97
2019-03-10T05:23:35.765Z,5.63
2019-03-10T05:26:05.255Z,5.87
2019-03-10T05:28:36.854Z,4.50
2019-03-10T05:31:05.875Z,6.37
2019-03-10T05:33:34.920Z,9.50
2019-03-10T05:36:04.088Z,7.95
2019-03-10T05:38:33.127Z,6.45
2019-03-10T05:41:02.198Z,14.93
2019-03-10T05:43:30.682Z,8.30
2019-03-10T05:45:59.132Z,7.80
2019-03-10T05:48:28.197Z,7.20
2019-03-10T05:50:57.281Z,6.62
2019-03-10T05:53:26.331Z,5.75
2019-03-10T05:55:54.856Z,13.00
2019-03-10T05:58:23.339Z,6.63
2019-03-10T06:00:52.366Z,6.70
2019-03-10T06:03:21.398Z,5.75
2019-03-10T06:05:50.444Z,10.98
2019-03-10T06:08:19.490Z,7.58
2019-03-10T06:10:48.526Z,8.40
2019-03-10T06:13:17.634Z,4.58
2019-03-10T06:15:46.664Z,6.00
2019-03-10T06:18:15.701Z,9.15
2019-03-10T06:20:44.724Z,9.98
2019-03-10T06:23:13.756Z,8.85
2019-03-10T06:25:42.811Z,11.53
2019-03-10T06:28:11.850Z,9.90
2019-03-10T06:30:40.948Z,6.30
2019-03-10T06:33:10.001Z,10.90
2019-03-10T06:35:39.029Z,8.63
2019-03-10T06:38:08.076Z,7.97
2019-03-10T06:40:37.115Z,7.67
2019-03-10T06:43:06.229Z,9.98
2019-03-10T06:45:35.271Z,7.70
2019-03-10T06:48:04.318Z,6.17
2019-03-10T06:50:33.373Z,5.47
2019-03-10T06:53:02.427Z,10.50
2019-03-10T06:55:31.554Z,8.83
2019-03-10T06:58:00.583Z,11.10
2019-03-10T07:00:29.619Z,9.90
2019-03-10T07:02:58.641Z,9.90
2019-03-10T07:05:27.702Z,8.93
2019-03-10T07:07:56.749Z,12.63
2019-03-10T07:10:25.789Z,5.58
2019-03-10T07:12:54.830Z,9.50
2019-03-10T07:15:23.907Z,9.25
2019-03-10T07:17:53.010Z,7.72
2019-03-10T07:20:22.114Z,12.25
2019-03-10T07:22:51.171Z,5.55
2019-03-10T07:25:20.217Z,8.70
2019-03-10T07:27:50.897Z,7.12
2019-03-10T07:30:30.325Z,7.10
2019-03-10T07:33:00.990Z,8.15
2019-03-10T07:35:31.686Z,5.70
2019-03-10T07:38:20.399Z,7.65
2019-03-10T07:40:51.146Z,8.85
2019-03-10T07:43:21.839Z,13.50
2019-03-10T07:45:55.615Z,8.90
2019-03-10T07:48:32.104Z,9.98
2019-03-10T07:51:08.444Z,10.18
2019-03-10T07:53:51.111Z,7.85
2019-03-10T07:56:33.623Z,8.05
2019-03-10T07:59:20.555Z,7.42
2019-03-10T08:01:51.300Z,7.58
2019-03-10T08:04:38.256Z,7.70
2019-03-10T08:07:25.540Z,8.60
2019-03-10T08:09:56.240Z,14.50
2019-03-10T08:12:27.021Z,13.50
2019-03-10T08:15:15.530Z,8.93
2019-03-10T08:18:01.546Z,9.60
2019-03-10T08:20:32.210Z,9.75
2019-03-10T08:23:02.905Z,14.70
2019-03-10T08:25:33.573Z,7.22
2019-03-10T08:28:10.377Z,10.50
2019-03-10T08:30:49.880Z,13.83
2019-03-10T08:33:37.051Z,9.65
2019-03-10T08:36:07.745Z,10.43
2019-03-10T08:38:38.423Z,9.58
2019-03-10T08:41:09.119Z,10.90
2019-03-10T08:43:42.527Z,9.53
2019-03-10T08:46:13.184Z,8.63
2019-03-10T08:49:00.466Z,12.07
2019-03-10T08:51:37.116Z,9.18
2019-03-10T08:54:10.743Z,11.85
2019-03-10T08:56:41.421Z,11.35
2019-03-10T08:59:15.113Z,10.25
2019-03-10T09:02:03.822Z,9.68
2019-03-10T09:04:49.249Z,12.35
2019-03-10T09:07:22.401Z,10.85
2019-03-10T09:09:53.085Z,9.18
2019-03-10T09:12:29.607Z,10.85
2019-03-10T09:15:12.363Z,12.58
2019-03-10T09:17:43.073Z,12.45
2019-03-10T09:20:13.810Z,11.43
2019-03-10T09:22:44.483Z,7.67
2019-03-10T09:25:27.244Z,9.50
2019-03-10T09:28:06.753Z,9.33
2019-03-10T09:30:52.437Z,9.30
2019-03-10T09:33:28.950Z,7.15
2019-03-10T09:36:14.657Z,5.00
2019-03-10T09:38:45.362Z,5.67
2019-03-10T09:41:34.268Z,9.33
2019-03-10T09:44:07.878Z,6.28
2019-03-10T09:46:38.558Z,8.23
2019-03-10T09:49:25.852Z,6.40
2019-03-10T09:51:59.645Z,7.97
2019-03-10T09:54:39.348Z,5.60
2019-03-10T09:57:16.127Z,5.33
2019-03-10T10:00:05.113Z,6.17
2019-03-10T10:02:38.442Z,5.92
2019-03-10T10:05:26.603Z,6.87
2019-03-10T10:07:57.270Z,9.15
2019-03-10T10:10:27.944Z,7.42
2019-03-10T10:13:14.474Z,7.80
2019-03-10T10:15:57.208Z,6.50
2019-03-10T10:18:44.068Z,7.37
2019-03-10T10:21:14.819Z,7.60
2019-03-10T10:23:51.371Z,6.70
2019-03-10T10:26:22.100Z,7.62
2019-03-10T10:29:01.616Z,7.97
2019-03-10T10:31:41.282Z,8.83
2019-03-10T10:34:20.707Z,6.30
2019-03-10T10:37:07.349Z,8.68
2019-03-10T10:39:38.017Z,5.80
2019-03-10T10:42:08.699Z,5.75
2019-03-10T10:44:48.403Z,4.70
2019-03-10T10:47:35.301Z,8.20
2019-03-10T10:50:24.562Z,6.50
2019-03-10T10:52:58.325Z,5.17
2019-03-10T10:55:31.956Z,5.97
2019-03-10T10:58:18.733Z,4.87
2019-03-10T11:00:55.143Z,5.17
2019-03-10T11:03:38.131Z,3.40
2019-03-10T11:06:08.881Z,3.00
2019-03-10T11:08:51.889Z,3.12
2019-03-10T11:11:34.724Z,5.55
2019-03-10T11:14:11.566Z,4.40
2019-03-10T11:16:51.069Z,3.25
2019-03-10T11:19:34.121Z,3.90
2019-03-10T11:22:10.796Z,3.33
2019-03-10T11:24:44.182Z,6.30
2019-03-10T11:27:20.866Z,5.25
2019-03-10T11:29:51.568Z,3.17
2019-03-10T11:32:22.255Z,5.92
2019-03-10T11:34:55.999Z,5.12
2019-03-10T11:37:32.195Z,3.25
2019-03-10T11:40:05.893Z,5.45
2019-03-10T11:42:48.416Z,5.00
2019-03-10T11:45:19.085Z,7.62
2019-03-10T11:48:06.396Z,7.55
2019-03-10T11:50:53.221Z,4.58
2019-03-10T11:53:36.279Z,5.00
2019-03-10T11:56:16.202Z,4.20
2019-03-10T11:58:46.896Z,4.00
2019-03-10T12:01:20.012Z,6.17
2019-03-10T12:03:53.437Z,5.05
2019-03-10T12:06:39.128Z,5.42
2019-03-10T12:09:16.863Z,4.65
2019-03-10T12:11:45.908Z,4.15
2019-03-10T12:14:14.990Z,3.87
2019-03-10T12:16:44.163Z,2.77
2019-03-10T12:19:13.269Z,6.33
2019-03-10T12:21:42.483Z,5.10
2019-03-10T12:24:11.547Z,8.73
2019-03-10T12:26:40.654Z,5.00
2019-03-10T12:29:09.695Z,5.15
2019-03-10T12:31:38.734Z,4.47
2019-03-10T12:34:07.760Z,4.78
2019-03-10T12:36:36.896Z,3.85
2019-03-10T12:39:07.265Z,5.75
2019-03-10T12:41:36.385Z,5.22
2019-03-10T12:44:05.486Z,4.55
2019-03-10T12:46:34.529Z,5.85
2019-03-10T12:49:03.642Z,6.40
2019-03-10T12:51:32.685Z,5.28
2019-03-10T12:54:01.746Z,3.65
2019-03-10T12:56:30.788Z,5.50
2019-03-10T12:58:59.841Z,9.18
2019-03-10T13:01:28.890Z,5.60
2019-03-10T13:03:59.134Z,5.42
2019-03-10T13:06:28.443Z,4.58
2019-03-10T13:08:57.467Z,5.92
2019-03-10T13:11:26.531Z,5.60
2019-03-10T13:13:55.570Z,5.40
2019-03-10T13:16:24.624Z,5.90
2019-03-10T13:18:53.656Z,6.05
2019-03-10T13:21:22.730Z,5.75
2019-03-10T13:23:51.821Z,6.97
2019-03-10T13:26:20.877Z,6.05
2019-03-10T13:28:49.947Z,5.53
2019-03-10T13:31:19.051Z,7.30
2019-03-10T13:33:48.092Z,8.93
2019-03-10T13:36:17.152Z,6.30
2019-03-10T13:38:46.180Z,5.87
2019-03-10T13:41:15.234Z,5.17
2019-03-10T13:43:44.359Z,6.22
2019-03-10T13:46:13.576Z,7.97
2019-03-10T13:48:42.616Z,6.10
2019-03-10T13:51:11.662Z,5.65
2019-03-10T13:53:40.700Z,5.65
2019-03-10T13:56:09.737Z,6.00
2019-03-10T13:58:38.791Z,4.78
2019-03-10T14:01:08.064Z,6.25
2019-03-10T14:03:37.123Z,7.17
2019-03-10T14:06:06.204Z,6.08
2019-03-10T14:08:35.252Z,6.05
2019-03-10T14:11:04.356Z,5.35
2019-03-10T14:13:33.416Z,7.37
2019-03-10T14:16:02.532Z,5.90
2019-03-10T14:18:31.577Z,6.42
2019-03-10T14:21:00.645Z,6.58
2019-03-10T14:23:29.699Z,6.30
2019-03-10T14:25:58.740Z,4.58
2019-03-10T14:28:27.809Z,6.47
2019-03-10T14:30:56.890Z,5.47
2019-03-10T14:33:25.953Z,4.78
2019-03-10T14:35:55.047Z,6.28
2019-03-10T14:38:24.087Z,6.10
2019-03-10T14:40:53.144Z,4.25
2019-03-10T14:43:22.175Z,6.28
2019-03-10T14:45:51.227Z,6.95
2019-03-10T14:48:20.257Z,6.10
2019-03-10T14:50:49.312Z,6.15
2019-03-10T14:53:18.334Z,5.00
2019-03-10T14:55:47.377Z,6.67
2019-03-10T14:58:16.424Z,6.40
2019-03-10T15:00:45.471Z,6.15
2019-03-10T15:03:14.523Z,5.50
2019-03-10T15:05:43.583Z,8.68
2019-03-10T15:08:12.630Z,4.40
2019-03-10T15:10:41.668Z,5.15
2019-03-10T15:13:11.342Z,4.22
2019-03-10T15:15:40.619Z,5.05
2019-03-10T15:18:09.711Z,6.20
2019-03-10T15:20:38.794Z,5.90
2019-03-10T15:23:07.866Z,6.35
2019-03-10T15:25:36.913Z,5.03
2019-03-10T15:28:05.956Z,6.35
2019-03-10T15:30:35.024Z,4.37
2019-03-10T15:33:04.046Z,5.80
2019-03-10T15:35:33.098Z,7.33
2019-03-10T15:38:02.132Z,2.98
2019-03-10T15:40:31.191Z,4.15
2019-03-10T15:43:00.246Z,4.42
2019-03-10T15:45:29.350Z,4.28
2019-03-10T15:47:58.374Z,3.22
2019-03-10T15:50:39.542Z,2.87
2019-03-10T15:53:08.606Z,2.17
2019-03-10T15:55:37.648Z,4.45
2019-03-10T15:58:06.772Z,2.60
2019-03-10T16:00:35.908Z,3.00
2019-03-10T16:03:05.021Z,3.10
2019-03-10T16:05:34.064Z,4.22
2019-03-10T16:08:03.293Z,2.58
2019-03-10T16:10:32.400Z,3.58
2019-03-10T16:13:01.451Z,3.05
2019-03-10T16:15:31.324Z,4.05
2019-03-10T16:18:00.353Z,3.62
2019-03-10T16:20:29.405Z,5.35
2019-03-10T16:22:58.447Z,5.67
2019-03-10T16:25:27.485Z,3.58
2019-03-10T16:27:56.529Z,3.90
2019-03-10T16:30:27.789Z,3.42
2019-03-10T16:32:56.849Z,2.00
2019-03-10T16:35:25.965Z,2.60
2019-03-10T16:37:55.006Z,2.45
2019-03-10T16:40:24.053Z,7.10
2019-03-10T16:42:53.075Z,3.77
2019-03-10T16:45:25.295Z,4.25
2019-03-10T16:47:54.413Z,5.60
2019-03-10T16:50:27.864Z,6.97
2019-03-10T16:52:57.073Z,3.47
2019-03-10T16:55:26.271Z,3.70
2019-03-10T16:57:55.286Z,3.62
2019-03-10T17:00:24.371Z,3.15
2019-03-10T17:02:53.463Z,2.45
2019-03-10T17:05:23.342Z,3.58
2019-03-10T17:07:52.551Z,2.85
2019-03-10T17:10:27.707Z,3.20
2019-03-10T17:12:56.818Z,5.45
2019-03-10T17:15:26.254Z,4.60
2019-03-10T17:17:55.442Z,4.35
2019-03-10T17:20:24.492Z,4.03
2019-03-10T17:22:53.590Z,5.45
2019-03-10T17:25:22.727Z,2.60
2019-03-10T17:27:51.871Z,2.37
2019-03-10T17:30:23.128Z,5.05
2019-03-10T17:32:52.249Z,2.70
2019-03-10T17:35:21.724Z,3.60
2019-03-10T17:37:50.918Z,2.87
2019-03-10T17:40:26.450Z,3.37
2019-03-10T17:42:55.568Z,1.95
2019-03-10T17:45:25.939Z,3.87
2019-03-10T17:47:54.992Z,1.95
2019-03-10T17:50:24.116Z,2.95
2019-03-10T17:52:53.159Z,5.12
2019-03-10T17:55:23.227Z,2.30
2019-03-10T17:57:52.532Z,2.05
2019-03-10T18:00:26.353Z,1.20
2019-03-10T18:02:55.386Z,4.03
2019-03-10T18:05:24.425Z,1.92
2019-03-10T18:07:53.475Z,3.12
2019-03-10T18:10:22.484Z,4.42
2019-03-10T18:12:51.608Z,2.67
2019-03-10T18:15:20.716Z,0.70
2019-03-10T18:17:49.835Z,3.58
2019-03-10T18:20:22.661Z,1.82
2019-03-10T18:22:51.803Z,1.90
2019-03-10T18:25:20.804Z,5.33
2019-03-10T18:27:49.858Z,2.77
2019-03-10T18:30:23.210Z,1.00
2019-03-10T18:32:52.259Z,3.12
2019-03-10T18:35:21.433Z,3.12
2019-03-10T18:37:50.557Z,3.05
2019-03-10T18:40:20.809Z,0.75
2019-03-10T18:42:49.920Z,2.05
2019-03-10T18:45:19.911Z,2.45
2019-03-10T18:47:49.109Z,1.15
2019-03-10T18:50:26.090Z,0.70
2019-03-10T18:52:55.200Z,1.22
2019-03-10T18:55:24.465Z,1.82
2019-03-10T18:57:53.517Z,3.10
2019-03-10T19:00:24.392Z,1.50
2019-03-10T19:02:53.571Z,1.65
2019-03-10T19:05:22.604Z,1.07
2019-03-10T19:07:51.661Z,0.68
2019-03-10T19:10:20.706Z,2.72
2019-03-10T19:12:49.784Z,0.53
2019-03-10T19:15:29.386Z,2.55
2019-03-10T19:17:58.431Z,0.75
2019-03-10T19:20:27.543Z,0.88
2019-03-10T19:22:56.588Z,0.72
2019-03-10T19:25:25.692Z,1.25
2019-03-10T19:27:54.733Z,0.90
2019-03-10T19:30:24.997Z,2.15
2019-03-10T19:32:54.032Z,0.72
2019-03-10T19:35:23.048Z,1.37
2019-03-10T19:37:52.077Z,0.50
2019-03-10T19:40:22.375Z,0.40
2019-03-10T19:42:51.448Z,1.30
2019-03-10T19:45:21.724Z,0.40
2019-03-10T19:47:50.744Z,0.50
2019-03-10T19:50:27.961Z,2.40
2019-03-10T19:52:57.343Z,2.05
2019-03-10T19:55:26.454Z,0.40
2019-03-10T19:57:55.492Z,0.50
2019-03-10T20:00:24.536Z,2.58
2019-03-10T20:02:53.076Z,0.90
2019-03-10T20:05:21.622Z,0.80
2019-03-10T20:07:50.090Z,0.90
2019-03-10T20:10:21.639Z,0.60
2019-03-10T20:12:50.109Z,0.80
2019-03-10T20:15:25.374Z,0.60
2019-03-10T20:17:53.857Z,0.83
2019-03-10T20:20:30.525Z,1.20
2019-03-10T20:23:01.011Z,2.23
2019-03-10T20:25:29.267Z,1.47
2019-03-10T20:27:57.720Z,1.50
2019-03-10T20:30:27.248Z,1.87
2019-03-10T20:32:55.737Z,2.80
2019-03-10T20:35:24.299Z,2.10
2019-03-10T20:37:53.154Z,4.27
2019-03-10T20:40:28.637Z,3.40
2019-03-10T20:42:57.125Z,3.80
2019-03-10T20:45:25.714Z,3.73
2019-03-10T20:47:56.249Z,3.60
2019-03-10T20:50:24.596Z,3.00
2019-03-10T20:52:53.065Z,2.50
2019-03-10T20:55:21.618Z,2.03
2019-03-10T20:57:50.106Z,2.00
2019-03-10T21:00:28.781Z,2.30
2019-03-10T21:02:57.299Z,2.10
2019-03-10T21:05:25.852Z,2.33
2019-03-10T21:07:54.389Z,1.83
2019-03-10T21:10:26.068Z,2.13
2019-03-10T21:12:54.597Z,1.80
2019-03-10T21:15:26.079Z,2.00
2019-03-10T21:17:54.006Z,3.17
2019-03-10T21:20:23.904Z,2.60
2019-03-10T21:22:52.379Z,2.10
2019-03-10T21:25:31.258Z,1.93
2019-03-10T21:27:59.729Z,1.70
2019-03-10T21:30:29.952Z,2.63
2019-03-10T21:32:58.471Z,2.60
2019-03-10T21:35:26.937Z,3.37
2019-03-10T21:37:55.540Z,2.47
2019-03-10T21:40:25.740Z,2.27
2019-03-10T21:42:54.212Z,2.33
2019-03-10T21:45:22.745Z,3.90
2019-03-10T21:47:51.226Z,1.40
2019-03-10T21:50:20.036Z,1.90
2019-03-10T21:52:48.679Z,1.30
2019-03-10T21:55:17.981Z,2.00
2019-03-10T21:57:46.524Z,1.23
2019-03-10T22:00:18.794Z,2.17
2019-03-10T22:02:47.342Z,1.37
2019-03-10T22:05:17.032Z,1.00
2019-03-10T22:07:45.843Z,1.10
2019-03-10T22:10:27.418Z,0.83
2019-03-10T22:12:53.518Z,0.93
2019-03-10T22:15:22.037Z,2.83
2019-03-10T22:17:50.518Z,1.00
2019-03-10T22:20:19.819Z,1.70
2019-03-10T22:22:49.865Z,2.20
2019-03-10T22:25:18.483Z,2.60
2019-03-10T22:27:47.007Z,1.37
2019-03-10T22:30:22.817Z,0.60
2019-03-10T22:32:51.310Z,0.93
2019-03-10T22:35:19.845Z,1.17
2019-03-10T22:37:48.323Z,0.80
2019-03-10T22:40:17.766Z,0.93
2019-03-10T22:42:46.711Z,0.80
2019-03-10T22:45:18.959Z,1.03
2019-03-10T22:47:47.402Z,0.80
2019-03-10T22:50:16.513Z,1.03
2019-03-10T22:52:45.506Z,0.97
2019-03-10T22:55:15.123Z,0.80
2019-03-10T22:57:44.013Z,1.20
2019-03-10T23:00:25.158Z,0.80
2019-03-10T23:02:53.626Z,2.20
2019-03-10T23:05:22.104Z,0.97
2019-03-10T23:07:50.566Z,1.03
2019-03-10T23:10:19.213Z,1.03
2019-03-10T23:12:47.665Z,1.00
2019-03-10T23:15:16.200Z,0.90
2019-03-10T23:17:44.734Z,1.10
2019-03-10T23:20:16.836Z,1.10
2019-03-10T23:22:45.285Z,0.80
2019-03-10T23:25:13.780Z,0.80
2019-03-10T23:27:42.318Z,1.23
2019-03-10T23:30:16.228Z,0.97
2019-03-10T23:32:44.695Z,0.80
2019-03-10T23:35:13.522Z,1.10
2019-03-10T23:37:42.610Z,3.40
2019-03-10T23:40:19.374Z,4.13
2019-03-10T23:42:47.830Z,3.23
2019-03-10T23:45:17.338Z,4.27
2019-03-10T23:47:45.956Z,4.70
2019-03-10T23:50:19.017Z,5.30
2019-03-10T23:52:47.609Z,3.90
2019-03-10T23:55:16.171Z,5.40
2019-03-10T23:57:44.618Z,3.27
